Time;durP1;ratioP1;P1;durP2;ratioP2;P2;SDS_P1;SDS_P2;PMS_P1;PMS_P2;Temp;Humidity;BMP_temperature;BMP_pressure;BME280_temperature;BME280_humidity;BME280_pressure;Samples;Min_cycle;Max_cycle;Signal;HPM_P1;HPM_P2
2022/08/05 00:00:17;;;;;;;2.90;2.23;;;26.50;84.80;;;;;;5017327;28;20212;-78
2022/08/05 00:02:44;;;;;;;5.50;3.03;;;26.30;85.90;;;;;;4983917;28;20197;-79
2022/08/05 00:05:10;;;;;;;3.23;2.93;;;26.30;85.00;;;;;;4999046;28;20447;-79
2022/08/05 00:07:35;;;;;;;3.40;2.60;;;26.20;87.50;;;;;;4983069;28;20450;-78
2022/08/05 00:10:01;;;;;;;3.03;2.70;;;26.20;88.30;;;;;;4996227;28;20466;-78
2022/08/05 00:12:27;;;;;;;2.83;2.60;;;26.10;89.70;;;;;;4994511;28;20558;-78
2022/08/05 00:14:52;;;;;;;4.13;2.50;;;26.00;90.40;;;;;;5010602;28;20459;-77
2022/08/05 00:17:18;;;;;;;6.60;2.57;;;26.00;90.90;;;;;;4994429;28;20189;-77
2022/08/05 00:19:46;;;;;;;3.83;2.40;;;25.90;90.80;;;;;;4996977;28;20216;-77
2022/08/05 00:22:12;;;;;;;5.87;2.57;;;25.90;90.30;;;;;;4998258;28;20845;-79
2022/08/05 00:24:38;;;;;;;3.83;2.57;;;25.80;90.40;;;;;;4999836;28;20562;-78
2022/08/05 00:27:04;;;;;;;6.80;2.60;;;25.70;92.00;;;;;;4992409;28;20189;-79
2022/08/05 00:29:30;;;;;;;2.57;2.40;;;25.70;91.70;;;;;;4989471;28;20458;-79
2022/08/05 00:31:55;;;;;;;4.13;2.80;;;25.60;92.10;;;;;;5004133;28;20189;-78
2022/08/05 00:34:21;;;;;;;5.30;2.70;;;25.40;96.20;;;;;;4997728;28;20613;-78
2022/08/05 00:36:46;;;;;;;4.63;3.17;;;25.30;96.70;;;;;;4981753;28;20200;-78
2022/08/05 00:39:12;;;;;;;3.30;3.00;;;25.10;97.00;;;;;;5015928;28;20292;-78
2022/08/05 00:41:38;;;;;;;3.23;2.73;;;25.00;98.20;;;;;;4998065;28;20235;-78
2022/08/05 00:44:03;;;;;;;10.33;3.10;;;24.90;98.60;;;;;;4998601;28;20296;-79
2022/08/05 00:46:29;;;;;;;4.30;3.37;;;24.80;99.50;;;;;;4997629;28;20614;-78
2022/08/05 00:48:55;;;;;;;5.57;3.47;;;24.70;99.90;;;;;;4997871;28;20205;-78
2022/08/05 00:51:21;;;;;;;3.80;3.50;;;24.70;99.70;;;;;;4998694;28;20435;-78
2022/08/05 00:53:48;;;;;;;5.03;3.13;;;24.50;99.90;;;;;;5000105;28;20187;-80
2022/08/05 00:56:14;;;;;;;5.13;3.10;;;24.30;99.90;;;;;;5000888;28;20427;-79
2022/08/05 00:58:40;;;;;;;4.57;2.60;;;24.10;99.90;;;;;;5000182;28;20451;-79
2022/08/05 01:01:06;;;;;;;4.40;3.00;;;24.00;99.90;;;;;;4984001;28;20489;-78
2022/08/05 01:03:31;;;;;;;3.27;2.87;;;24.00;99.90;;;;;;4999075;28;20227;-78
2022/08/05 01:05:57;;;;;;;5.00;3.03;;;24.10;99.90;;;;;;4994951;28;20203;-78
2022/08/05 01:08:23;;;;;;;5.80;2.90;;;24.00;99.90;;;;;;4996385;28;20231;-78
2022/08/05 01:10:55;;;;;;;4.20;2.70;;;23.90;99.90;;;;;;5013406;28;20188;-78
2022/08/05 01:13:30;;;;;;;3.10;2.80;;;23.90;99.90;;;;;;4995154;28;20338;-78
2022/08/05 01:15:59;;;;;;;6.30;2.80;;;23.80;99.90;;;;;;4995015;28;20456;-82
2022/08/05 01:18:33;;;;;;;8.00;2.80;;;23.80;99.90;;;;;;4979949;28;20442;-79
2022/08/05 01:21:27;;;;;;;3.20;2.90;;;23.80;99.90;;;;;;4996125;28;20774;-79
2022/08/05 01:23:56;;;;;;;3.50;3.20;;;23.70;99.90;;;;;;4994931;28;20489;-80
2022/08/05 01:26:49;;;;;;;3.27;3.00;;;23.80;99.90;;;;;;4994994;28;20429;-79
2022/08/05 01:29:29;;;;;;;2.67;2.47;;;23.90;99.90;;;;;;5011116;28;20474;-77
2022/08/05 01:32:01;;;;;;;3.70;2.90;;;23.70;99.90;;;;;;5012073;28;20427;-77
2022/08/05 01:34:47;;;;;;;3.60;3.23;;;23.70;99.90;;;;;;4978913;28;20454;-77
2022/08/05 01:37:45;;;;;;;3.30;3.03;;;23.60;99.90;;;;;;5014327;28;20956;-79
2022/08/05 01:40:16;;;;;;;3.03;2.83;;;23.50;99.90;;;;;;5006169;28;20459;-77
2022/08/05 01:42:44;;;;;;;9.10;2.93;;;23.60;99.90;;;;;;5015887;28;20431;-83
2022/08/05 01:45:13;;;;;;;3.57;2.90;;;23.60;99.90;;;;;;4998301;28;20454;-77
2022/08/05 01:47:40;;;;;;;4.30;2.87;;;23.90;94.80;;;;;;4993943;28;20438;-79
2022/08/05 01:50:29;;;;;;;6.87;2.90;;;24.10;94.10;;;;;;5015651;28;20451;-80
2022/08/05 01:52:59;;;;;;;4.30;2.90;;;24.20;93.10;;;;;;5002792;28;20427;-79
2022/08/05 01:55:27;;;;;;;3.23;2.93;;;24.40;92.20;;;;;;5020233;28;20436;-77
2022/08/05 01:57:54;;;;;;;2.77;2.57;;;24.40;92.60;;;;;;5000227;28;20446;-76
2022/08/05 02:00:20;;;;;;;5.33;2.67;;;24.50;93.20;;;;;;5020292;28;20449;-76
2022/08/05 02:02:54;;;;;;;3.33;2.97;;;24.50;93.30;;;;;;5023373;28;20439;-79
2022/08/05 02:05:23;;;;;;;4.37;2.73;;;24.50;93.60;;;;;;4981052;28;20955;-79
2022/08/05 02:07:49;;;;;;;4.87;2.70;;;24.50;93.90;;;;;;4978923;28;20435;-79
2022/08/05 02:10:15;;;;;;;4.07;2.90;;;24.50;94.40;;;;;;4978985;28;20546;-79
2022/08/05 02:13:04;;;;;;;7.73;2.70;;;24.60;93.90;;;;;;4979076;28;20192;-79
2022/08/05 02:15:44;;;;;;;3.70;2.97;;;24.60;94.50;;;;;;5010652;28;20181;-77
2022/08/05 02:18:18;;;;;;;8.20;3.00;;;24.60;94.40;;;;;;4993325;28;20845;-78
2022/08/05 02:20:55;;;;;;;4.87;2.80;;;24.60;94.80;;;;;;4992727;28;20432;-76
2022/08/05 02:23:27;;;;;;;5.67;3.27;;;24.60;95.50;;;;;;5010852;28;21172;-79
2022/08/05 02:25:53;;;;;;;6.70;2.80;;;24.50;95.30;;;;;;5011473;28;21112;-79
2022/08/05 02:28:26;;;;;;;3.10;2.87;;;24.50;96.10;;;;;;4992769;28;20435;-77
2022/08/05 02:31:18;;;;;;;3.97;3.33;;;24.40;97.00;;;;;;5010299;28;20728;-78
2022/08/05 02:33:50;;;;;;;5.03;3.03;;;24.30;97.50;;;;;;4992755;28;20439;-79
2022/08/05 02:36:19;;;;;;;11.17;3.40;;;24.30;98.00;;;;;;4978333;28;20462;-81
2022/08/05 02:38:47;;;;;;;7.10;3.10;;;24.20;98.10;;;;;;4994769;28;20466;-79
2022/08/05 02:41:14;;;;;;;4.30;3.17;;;24.20;98.90;;;;;;5012249;28;20424;-81
2022/08/05 02:43:42;;;;;;;4.00;2.70;;;24.20;99.40;;;;;;4983140;28;20941;-81
2022/08/05 02:46:08;;;;;;;6.40;2.70;;;24.10;99.60;;;;;;4981999;28;20439;-81
2022/08/05 02:48:36;;;;;;;6.33;3.30;;;23.90;99.90;;;;;;4996501;28;20436;-81
2022/08/05 02:51:02;;;;;;;5.83;2.60;;;24.10;99.90;;;;;;5014244;28;20428;-80
2022/08/05 02:53:30;;;;;;;5.43;3.23;;;24.00;99.90;;;;;;4993299;28;20470;-79
2022/08/05 02:55:56;;;;;;;6.17;2.80;;;23.90;99.90;;;;;;4993510;28;20434;-79
2022/08/05 02:58:24;;;;;;;10.33;3.27;;;23.80;99.90;;;;;;4993005;28;20424;-79
2022/08/05 03:00:55;;;;;;;2.90;2.60;;;23.90;99.90;;;;;;4992890;28;21002;-79
2022/08/05 03:03:21;;;;;;;9.00;3.10;;;23.90;99.90;;;;;;4976640;28;20475;-78
2022/08/05 03:05:48;;;;;;;11.47;3.10;;;23.80;99.90;;;;;;4992218;28;20440;-79
2022/08/05 03:08:15;;;;;;;5.90;2.70;;;23.70;99.90;;;;;;4976112;28;20424;-79
2022/08/05 03:10:44;;;;;;;13.53;3.20;;;23.70;99.90;;;;;;4975888;28;20455;-79
2022/08/05 03:13:14;;;;;;;5.53;2.80;;;23.60;99.90;;;;;;4975959;28;20431;-78
2022/08/05 03:15:45;;;;;;;5.13;2.90;;;23.50;99.90;;;;;;4992204;28;20939;-78
2022/08/05 03:18:11;;;;;;;7.27;2.97;;;23.50;99.90;;;;;;4991998;28;20438;-78
2022/08/05 03:20:37;;;;;;;6.37;3.43;;;23.40;99.90;;;;;;5009869;28;20462;-77
2022/08/05 03:23:08;;;;;;;7.90;3.30;;;23.30;99.90;;;;;;4991872;28;20478;-77
2022/08/05 03:25:35;;;;;;;5.60;3.20;;;23.20;99.90;;;;;;4975739;28;21047;-77
2022/08/05 03:28:02;;;;;;;5.60;3.57;;;23.10;99.90;;;;;;4975740;28;21109;-78
2022/08/05 03:30:31;;;;;;;12.30;3.53;;;23.10;99.90;;;;;;5009653;28;20932;-77
2022/08/05 03:33:01;;;;;;;4.50;3.07;;;22.80;99.90;;;;;;4992275;28;20519;-77
2022/08/05 03:35:28;;;;;;;3.53;3.20;;;22.70;99.90;;;;;;4977062;28;20469;-77
2022/08/05 03:37:57;;;;;;;4.03;3.30;;;22.50;99.90;;;;;;4992936;28;20442;-79
2022/08/05 03:40:23;;;;;;;6.80;3.50;;;22.30;99.90;;;;;;5011007;28;20456;-80
2022/08/05 03:42:49;;;;;;;15.17;3.70;;;22.20;99.90;;;;;;4992756;28;20486;-77
2022/08/05 03:45:15;;;;;;;7.50;2.87;;;22.20;99.90;;;;;;4992689;28;20916;-78
2022/08/05 03:47:40;;;;;;;7.50;3.33;;;22.30;99.90;;;;;;5010628;28;20551;-77
2022/08/05 03:50:06;;;;;;;8.80;3.63;;;22.30;99.90;;;;;;5010110;28;20205;-76
2022/08/05 03:52:40;;;;;;;10.53;3.73;;;22.30;99.90;;;;;;5010106;28;20186;-76
2022/08/05 03:55:14;;;;;;;7.50;3.83;;;22.40;99.90;;;;;;5009759;28;21123;-76
2022/08/05 03:57:42;;;;;;;10.97;3.27;;;22.30;99.90;;;;;;4992656;28;20460;-76
2022/08/05 04:00:11;;;;;;;7.90;3.83;;;22.30;99.90;;;;;;5009314;28;20510;-76
2022/08/05 04:02:37;;;;;;;8.07;3.83;;;22.20;99.90;;;;;;4991733;28;20418;-78
2022/08/05 04:05:05;;;;;;;11.57;3.77;;;22.10;99.90;;;;;;5009110;28;20476;-77
2022/08/05 04:07:33;;;;;;;6.13;3.60;;;22.00;99.90;;;;;;5009205;28;20417;-76
2022/08/05 04:09:59;;;;;;;3.90;2.70;;;22.00;99.90;;;;;;4991594;28;20442;-76
2022/08/05 04:12:25;;;;;;;7.80;3.47;;;22.00;99.90;;;;;;5009301;28;20425;-76
2022/08/05 04:14:51;;;;;;;3.47;3.17;;;21.90;99.90;;;;;;5008981;28;20440;-76
2022/08/05 04:17:17;;;;;;;6.50;3.17;;;21.90;99.90;;;;;;5008899;28;20200;-76
2022/08/05 04:19:44;;;;;;;14.87;3.30;;;22.00;99.90;;;;;;5008981;28;20438;-76
2022/08/05 04:22:11;;;;;;;10.67;3.10;;;22.10;99.90;;;;;;4991320;28;20195;-76
2022/08/05 04:24:41;;;;;;;4.67;2.87;;;22.20;99.90;;;;;;4991178;28;20470;-76
2022/08/05 04:27:06;;;;;;;6.67;4.10;;;22.30;99.90;;;;;;4991379;28;20455;-77
2022/08/05 04:29:32;;;;;;;11.50;3.90;;;22.30;99.90;;;;;;4991091;28;20536;-76
2022/08/05 04:31:58;;;;;;;8.03;3.40;;;22.20;99.90;;;;;;5008153;28;20193;-74
2022/08/05 04:34:24;;;;;;;6.80;3.70;;;22.10;99.90;;;;;;5007696;28;20686;-74
2022/08/05 04:36:50;;;;;;;14.90;3.37;;;22.10;99.90;;;;;;5008071;28;20420;-74
2022/08/05 04:39:18;;;;;;;11.43;4.10;;;21.90;99.90;;;;;;5007905;28;20244;-75
2022/08/05 04:41:45;;;;;;;5.17;2.90;;;21.90;99.90;;;;;;5008076;28;20719;-74
2022/08/05 04:44:10;;;;;;;9.90;3.67;;;21.90;99.90;;;;;;5008039;28;20484;-75
2022/08/05 04:46:37;;;;;;;9.40;3.10;;;21.80;99.90;;;;;;5008185;28;20420;-75
2022/08/05 04:49:03;;;;;;;11.47;3.50;;;21.90;99.90;;;;;;5008138;28;20203;-75
2022/08/05 04:51:29;;;;;;;9.33;3.00;;;21.80;99.90;;;;;;4990533;28;20423;-74
2022/08/05 04:53:54;;;;;;;6.40;3.13;;;21.80;99.90;;;;;;5007998;28;20178;-74
2022/08/05 04:56:20;;;;;;;17.40;4.20;;;21.70;99.90;;;;;;4990517;28;20190;-75
2022/08/05 04:58:45;;;;;;;7.53;3.50;;;21.70;99.90;;;;;;4990086;28;20210;-74
2022/08/05 05:01:11;;;;;;;8.30;3.47;;;21.70;99.90;;;;;;4989835;28;20273;-73
2022/08/05 05:03:37;;;;;;;6.07;3.23;;;21.80;99.90;;;;;;4992254;28;20685;-74
2022/08/05 05:06:02;;;;;;;3.93;3.33;;;21.90;99.90;;;;;;4995545;28;20224;-74
2022/08/05 05:08:28;;;;;;;8.57;3.33;;;22.00;99.90;;;;;;5015521;28;20193;-75
2022/08/05 05:10:54;;;;;;;8.73;3.60;;;22.00;99.90;;;;;;5014729;28;20201;-76
2022/08/05 05:13:20;;;;;;;6.10;3.03;;;22.10;99.90;;;;;;5012615;28;20767;-75
2022/08/05 05:15:46;;;;;;;6.50;3.03;;;22.10;99.90;;;;;;5011139;28;20426;-75
2022/08/05 05:18:16;;;;;;;6.30;3.20;;;22.20;99.90;;;;;;5011205;28;20432;-76
2022/08/05 05:20:43;;;;;;;9.83;3.50;;;22.20;99.90;;;;;;4993287;28;20528;-74
2022/08/05 05:23:09;;;;;;;7.83;3.60;;;22.30;99.90;;;;;;4977146;28;20498;-74
2022/08/05 05:25:35;;;;;;;15.13;3.03;;;22.30;99.90;;;;;;5011130;28;20808;-75
2022/08/05 05:28:00;;;;;;;3.70;3.40;;;22.30;99.90;;;;;;4993214;28;20438;-74
2022/08/05 05:30:27;;;;;;;6.97;3.70;;;22.60;99.90;;;;;;4993120;28;20968;-75
2022/08/05 05:32:52;;;;;;;7.20;4.03;;;22.60;99.90;;;;;;4993197;28;20238;-74
2022/08/05 05:35:18;;;;;;;7.80;3.40;;;22.70;99.90;;;;;;5010899;28;20422;-74
2022/08/05 05:37:53;;;;;;;7.37;3.60;;;22.80;99.90;;;;;;4992993;28;20539;-73
2022/08/05 05:40:21;;;;;;;4.37;3.57;;;22.90;99.90;;;;;;5010158;28;20449;-73
2022/08/05 05:42:47;;;;;;;5.83;3.07;;;23.00;99.90;;;;;;5010161;28;20452;-74
2022/08/05 05:45:14;;;;;;;4.90;3.50;;;23.10;99.90;;;;;;5010054;28;20478;-74
2022/08/05 05:47:39;;;;;;;6.30;3.70;;;23.10;99.90;;;;;;4992406;28;20431;-74
2022/08/05 05:50:07;;;;;;;10.13;4.43;;;23.10;99.90;;;;;;5010038;28;20460;-74
2022/08/05 05:52:33;;;;;;;9.17;3.47;;;23.20;99.90;;;;;;5009944;28;20436;-74
2022/08/05 05:55:00;;;;;;;6.80;3.73;;;23.30;99.90;;;;;;5010190;28;20431;-75
2022/08/05 05:57:26;;;;;;;9.53;4.50;;;23.40;99.90;;;;;;5010084;28;20268;-73
2022/08/05 05:59:52;;;;;;;10.30;3.73;;;23.50;99.90;;;;;;4992442;28;20444;-74
2022/08/05 06:02:17;;;;;;;6.10;3.40;;;23.50;99.90;;;;;;4992213;28;20217;-74
2022/08/05 06:04:43;;;;;;;11.87;3.70;;;23.60;99.90;;;;;;4991916;28;20231;-74
2022/08/05 06:07:08;;;;;;;7.33;3.77;;;23.70;99.90;;;;;;4991938;28;20181;-74
2022/08/05 06:09:34;;;;;;;7.80;3.80;;;23.80;99.90;;;;;;5009445;28;20717;-74
2022/08/05 06:12:00;;;;;;;8.60;4.27;;;23.80;99.90;;;;;;4992126;28;20192;-74
2022/08/05 06:14:25;;;;;;;9.63;3.43;;;23.70;99.90;;;;;;4991838;28;20218;-76
2022/08/05 06:16:51;;;;;;;6.23;3.90;;;23.60;99.90;;;;;;4991965;28;20197;-75
2022/08/05 06:19:17;;;;;;;9.93;4.20;;;23.60;99.90;;;;;;4992135;28;20212;-75
2022/08/05 06:21:44;;;;;;;9.70;3.40;;;23.70;99.90;;;;;;4992156;28;20199;-73
2022/08/05 06:24:10;;;;;;;6.67;3.40;;;23.90;99.90;;;;;;5009998;28;20224;-74
2022/08/05 06:26:35;;;;;;;12.23;3.73;;;24.10;99.90;;;;;;5010068;28;20477;-75
2022/08/05 06:29:01;;;;;;;9.70;4.07;;;24.00;99.90;;;;;;5009804;28;20776;-73
2022/08/05 06:31:26;;;;;;;10.03;4.30;;;24.00;99.90;;;;;;4975770;28;20211;-74
2022/08/05 06:33:52;;;;;;;14.13;3.97;;;24.10;99.90;;;;;;5009907;28;20808;-74
2022/08/05 06:36:18;;;;;;;18.93;3.60;;;24.30;99.90;;;;;;5009797;28;20188;-74
2022/08/05 06:38:43;;;;;;;5.40;4.10;;;24.30;99.90;;;;;;5009549;28;20212;-73
2022/08/05 06:41:09;;;;;;;7.00;3.97;;;24.50;99.90;;;;;;5009600;28;20810;-73
2022/08/05 06:43:35;;;;;;;13.73;3.80;;;24.60;99.90;;;;;;4993132;28;20294;-74
2022/08/05 06:46:01;;;;;;;7.23;3.70;;;24.70;99.90;;;;;;4992083;28;20204;-74
2022/08/05 06:48:26;;;;;;;10.13;4.10;;;24.90;99.90;;;;;;5009284;28;20947;-73
2022/08/05 06:50:52;;;;;;;9.43;4.43;;;25.00;99.90;;;;;;5009405;28;20231;-74
2022/08/05 06:53:18;;;;;;;10.97;3.87;;;25.00;99.90;;;;;;4990967;28;20203;-75
2022/08/05 06:55:43;;;;;;;7.00;3.90;;;25.10;99.90;;;;;;4991272;28;20208;-75
2022/08/05 06:58:09;;;;;;;14.97;4.40;;;25.20;99.90;;;;;;4990997;28;20224;-75
2022/08/05 07:00:34;;;;;;;10.57;4.33;;;25.30;99.90;;;;;;4990777;28;20792;-74
2022/08/05 07:03:00;;;;;;;10.83;4.60;;;25.30;99.90;;;;;;4974303;28;20193;-74
2022/08/05 07:05:26;;;;;;;8.67;4.50;;;25.30;99.90;;;;;;4974274;28;20208;-75
2022/08/05 07:07:51;;;;;;;7.87;3.80;;;25.40;99.90;;;;;;4990760;28;20290;-76
2022/08/05 07:10:18;;;;;;;6.30;3.87;;;25.50;99.90;;;;;;5008089;28;20205;-75
2022/08/05 07:18:11;;;;;;;9.43;3.93;;;25.70;99.90;;;;;;4993391;28;20433;-76
2022/08/05 07:20:37;;;;;;;5.77;3.53;;;25.50;99.90;;;;;;5008064;28;20447;-76
2022/08/05 07:23:02;;;;;;;7.63;4.17;;;25.40;99.90;;;;;;4990327;28;20253;-77
2022/08/05 07:25:28;;;;;;;6.90;3.40;;;25.50;99.90;;;;;;4973827;28;20569;-76
2022/08/05 07:27:55;;;;;;;13.00;4.00;;;25.50;99.90;;;;;;5008224;28;20186;-76
2022/08/05 07:30:20;;;;;;;6.53;4.43;;;25.50;99.90;;;;;;5007945;28;20209;-76
2022/08/05 07:32:46;;;;;;;8.20;4.30;;;25.40;99.90;;;;;;5008061;28;20427;-76
2022/08/05 07:35:13;;;;;;;7.23;4.63;;;25.50;99.90;;;;;;5007945;28;20189;-76
2022/08/05 07:37:39;;;;;;;4.30;3.90;;;25.50;99.90;;;;;;4990098;28;20327;-76
2022/08/05 07:40:06;;;;;;;4.20;3.50;;;25.50;99.90;;;;;;4989732;28;20456;-76
2022/08/05 07:42:33;;;;;;;9.50;3.90;;;25.50;99.90;;;;;;5007672;28;20428;-76
2022/08/05 07:44:59;;;;;;;12.00;3.90;;;25.60;99.90;;;;;;5007842;28;20606;-76
2022/08/05 07:47:24;;;;;;;14.47;4.30;;;25.50;99.90;;;;;;5007466;28;21033;-77
2022/08/05 07:49:51;;;;;;;15.67;3.73;;;25.60;99.90;;;;;;4989150;28;20443;-76
2022/08/05 07:52:20;;;;;;;7.70;4.40;;;25.60;99.90;;;;;;4990043;28;20220;-75
2022/08/05 07:54:46;;;;;;;5.23;3.43;;;25.70;99.90;;;;;;4973567;28;20552;-75
2022/08/05 07:57:13;;;;;;;2.63;2.43;;;25.70;99.90;;;;;;4989783;28;20527;-75
2022/08/05 07:59:41;;;;;;;7.00;2.80;;;25.70;99.90;;;;;;5007563;28;20466;-76
2022/08/05 08:02:09;;;;;;;3.97;2.60;;;25.70;99.90;;;;;;4990205;28;20459;-76
2022/08/05 08:04:35;;;;;;;4.23;2.90;;;25.70;99.90;;;;;;5007908;28;20554;-75
2022/08/05 08:07:00;;;;;;;7.83;3.23;;;25.70;99.90;;;;;;5008870;28;20588;-75
2022/08/05 08:09:27;;;;;;;4.97;3.00;;;25.70;99.90;;;;;;4989638;28;20618;-76
2022/08/05 08:11:52;;;;;;;3.00;2.70;;;25.70;99.90;;;;;;4992156;28;20269;-76
2022/08/05 08:14:18;;;;;;;7.67;2.77;;;25.70;99.90;;;;;;5008795;28;20531;-75
2022/08/05 08:16:44;;;;;;;3.87;2.50;;;25.80;99.90;;;;;;5007823;28;20204;-73
2022/08/05 08:19:10;;;;;;;3.10;2.57;;;25.90;99.90;;;;;;5007990;28;20980;-73
2022/08/05 08:21:36;;;;;;;2.43;2.17;;;25.90;99.90;;;;;;5007370;28;20459;-73
2022/08/05 08:24:01;;;;;;;4.00;2.20;;;26.00;99.70;;;;;;5007252;28;20657;-72
2022/08/05 08:26:27;;;;;;;5.87;2.43;;;26.10;99.70;;;;;;4989494;28;20272;-73
2022/08/05 08:28:53;;;;;;;3.23;2.77;;;26.20;98.60;;;;;;5006985;28;20217;-73
2022/08/05 08:31:18;;;;;;;3.73;2.47;;;26.30;98.90;;;;;;5007065;28;20186;-73
2022/08/05 08:33:45;;;;;;;4.77;2.57;;;26.30;98.20;;;;;;4989231;28;20189;-75
2022/08/05 08:36:10;;;;;;;2.10;2.00;;;26.50;97.60;;;;;;5007149;28;20679;-73
2022/08/05 08:38:36;;;;;;;4.77;3.20;;;26.50;96.70;;;;;;5008961;28;20516;-73
2022/08/05 08:41:08;;;;;;;3.40;2.27;;;26.60;96.10;;;;;;5010886;28;20195;-73
2022/08/05 08:43:36;;;;;;;1.97;1.77;;;26.70;95.90;;;;;;4993079;28;20258;-72
2022/08/05 08:46:03;;;;;;;3.67;2.17;;;26.80;96.30;;;;;;4993359;28;20489;-73
2022/08/05 08:48:31;;;;;;;6.57;2.27;;;26.90;95.70;;;;;;5010679;28;21238;-72
2022/08/05 08:50:58;;;;;;;3.20;2.63;;;27.00;95.30;;;;;;4992868;28;20523;-73
2022/08/05 08:53:26;;;;;;;2.80;2.60;;;27.10;94.50;;;;;;4992733;28;20446;-73
2022/08/05 08:55:51;;;;;;;8.43;2.20;;;27.20;95.10;;;;;;4992873;28;20455;-73
2022/08/05 08:58:17;;;;;;;2.37;2.10;;;27.30;94.90;;;;;;5010370;28;20456;-72
2022/08/05 09:00:44;;;;;;;4.13;2.50;;;27.40;94.50;;;;;;5010551;28;20205;-73
2022/08/05 09:03:10;;;;;;;2.90;2.57;;;27.50;93.80;;;;;;4992980;28;20539;-73
2022/08/05 09:05:36;;;;;;;2.47;1.70;;;27.60;93.40;;;;;;5010174;28;20432;-72
2022/08/05 09:08:02;;;;;;;4.00;2.40;;;27.70;92.80;;;;;;4976281;28;20430;-73
2022/08/05 09:10:28;;;;;;;3.87;2.70;;;27.80;92.70;;;;;;4992534;28;20901;-73
2022/08/05 09:12:54;;;;;;;3.57;2.40;;;28.00;92.20;;;;;;4992268;28;20189;-73
2022/08/05 09:15:20;;;;;;;2.70;2.50;;;28.20;91.20;;;;;;5010499;28;20412;-73
2022/08/05 09:17:46;;;;;;;5.63;2.27;;;28.30;90.80;;;;;;5010352;28;20431;-73
2022/08/05 09:20:12;;;;;;;2.47;2.30;;;28.30;90.80;;;;;;5010161;28;20679;-73
2022/08/05 09:23:11;;;;;;;3.50;2.20;;;28.30;91.50;;;;;;5010000;28;20174;-73
2022/08/05 09:25:40;;;;;;;3.53;2.90;;;28.30;91.50;;;;;;4960265;28;20611;-73
2022/08/05 09:28:18;;;;;;;4.93;2.50;;;28.20;91.70;;;;;;5009981;28;20424;-73
2022/08/05 09:30:53;;;;;;;3.13;2.80;;;28.00;92.70;;;;;;5009993;28;20442;-73
2022/08/05 09:33:20;;;;;;;4.57;2.30;;;27.90;90.90;;;;;;4992199;28;20431;-73
2022/08/05 09:36:12;;;;;;;3.93;2.50;;;27.80;92.50;;;;;;4991959;28;20495;-73
2022/08/05 09:38:38;;;;;;;5.00;2.63;;;27.80;92.50;;;;;;5006634;28;20859;-73
2022/08/05 09:41:06;;;;;;;5.23;2.77;;;27.70;92.20;;;;;;5010087;28;20412;-73
2022/08/05 09:43:35;;;;;;;2.57;2.37;;;27.70;93.10;;;;;;5009850;28;20229;-73
2022/08/05 09:46:04;;;;;;;3.17;2.87;;;27.90;92.70;;;;;;4991985;28;20423;-72
2022/08/05 09:48:32;;;;;;;3.10;2.80;;;28.10;92.60;;;;;;5009799;28;20406;-72
2022/08/05 09:51:10;;;;;;;5.30;2.57;;;28.40;92.10;;;;;;5010592;28;20404;-73
2022/08/05 09:53:50;;;;;;;3.73;3.20;;;28.60;91.60;;;;;;5010721;28;20420;-72
2022/08/05 09:56:27;;;;;;;2.63;2.43;;;28.80;90.50;;;;;;4993741;28;20598;-73
2022/08/05 09:58:56;;;;;;;6.10;2.77;;;28.90;90.10;;;;;;4993113;28;20448;-73
2022/08/05 10:01:22;;;;;;;4.73;3.00;;;29.00;90.40;;;;;;4992491;28;20450;-73
2022/08/05 10:03:58;;;;;;;4.37;2.70;;;29.20;89.50;;;;;;5009423;28;20890;-73
2022/08/05 10:06:26;;;;;;;7.50;2.97;;;29.40;89.40;;;;;;5009530;28;20197;-73
2022/08/05 10:08:51;;;;;;;4.97;2.47;;;29.60;89.40;;;;;;4991636;28;20876;-74
2022/08/05 10:11:17;;;;;;;3.80;2.70;;;29.80;89.30;;;;;;4991641;28;20435;-73
2022/08/05 10:13:43;;;;;;;3.50;2.53;;;30.00;86.70;;;;;;5009831;28;20193;-73
2022/08/05 10:16:33;;;;;;;2.90;2.30;;;30.00;84.50;;;;;;5009382;28;20271;-73
2022/08/05 10:18:59;;;;;;;3.87;2.37;;;30.20;84.30;;;;;;5009465;28;20538;-73
2022/08/05 10:21:26;;;;;;;3.07;2.20;;;30.30;82.10;;;;;;5009201;28;20432;-73
2022/08/05 10:23:53;;;;;;;2.20;2.10;;;30.40;81.70;;;;;;5009132;28;20470;-73
2022/08/05 10:26:19;;;;;;;3.73;2.30;;;30.50;82.80;;;;;;5009213;28;20422;-73
2022/08/05 10:28:46;;;;;;;3.00;2.70;;;30.50;82.20;;;;;;5009163;28;20805;-73
2022/08/05 10:31:14;;;;;;;3.90;2.60;;;30.60;78.40;;;;;;5009338;28;20227;-72
2022/08/05 10:33:40;;;;;;;3.33;2.93;;;30.20;77.80;;;;;;5009104;28;20427;-73
2022/08/05 10:36:06;;;;;;;2.80;2.60;;;30.20;82.00;;;;;;5010332;28;20424;-73
2022/08/05 10:38:34;;;;;;;5.33;2.17;;;30.20;82.90;;;;;;4992445;28;20420;-74
2022/08/05 10:41:26;;;;;;;2.60;2.30;;;30.50;82.00;;;;;;4992253;28;20432;-73
2022/08/05 10:44:14;;;;;;;3.63;2.73;;;30.70;79.70;;;;;;5009686;28;20910;-74
2022/08/05 10:46:43;;;;;;;4.50;2.40;;;30.90;80.00;;;;;;4992091;28;20443;-74
2022/08/05 10:49:09;;;;;;;3.60;2.20;;;31.00;79.40;;;;;;5009900;28;20442;-74
2022/08/05 10:51:42;;;;;;;8.83;2.50;;;31.10;78.80;;;;;;5009789;28;20502;-73
2022/08/05 10:54:08;;;;;;;2.70;2.50;;;30.90;78.70;;;;;;4991819;28;20692;-74
2022/08/05 10:56:47;;;;;;;3.23;2.50;;;30.90;77.70;;;;;;5009477;28;20507;-74
2022/08/05 10:59:25;;;;;;;3.20;2.50;;;30.70;76.40;;;;;;5009392;28;20205;-73
2022/08/05 11:02:05;;;;;;;8.60;2.63;;;30.60;76.30;;;;;;5009037;28;20818;-74
2022/08/05 11:04:41;;;;;;;6.70;2.93;;;30.30;75.90;;;;;;5009352;28;20554;-73
2022/08/05 11:07:07;;;;;;;2.73;2.53;;;30.30;74.80;;;;;;4991435;28;21282;-74
2022/08/05 11:09:43;;;;;;;2.90;2.60;;;30.20;75.70;;;;;;5009128;28;20626;-73
2022/08/05 11:12:40;;;;;;;2.93;2.27;;;30.50;80.20;;;;;;4991470;28;20423;-73
2022/08/05 11:15:15;;;;;;;4.00;2.73;;;30.90;78.10;;;;;;4992503;28;20440;-78
2022/08/05 11:17:43;;;;;;;3.57;2.83;;;30.90;76.10;;;;;;4992742;28;20514;-76
2022/08/05 11:20:38;;;;;;;3.07;2.77;;;30.90;78.00;;;;;;5009339;28;20440;-78
2022/08/05 11:23:29;;;;;;;2.40;2.27;;;31.10;77.30;;;;;;4992070;28;20872;-77
2022/08/05 11:26:20;;;;;;;10.57;2.37;;;31.30;77.00;;;;;;5009330;28;20575;-76
2022/08/05 11:28:48;;;;;;;2.60;2.40;;;31.40;75.00;;;;;;5008987;28;20440;-77
2022/08/05 11:31:13;;;;;;;3.57;2.50;;;31.60;75.70;;;;;;5009762;28;20481;-77
2022/08/05 11:34:04;;;;;;;2.50;2.23;;;31.70;74.30;;;;;;5011432;28;20522;-77
2022/08/05 11:36:48;;;;;;;2.43;2.23;;;31.80;73.70;;;;;;5009878;28;20169;-77
2022/08/05 11:39:35;;;;;;;3.73;2.10;;;31.80;72.70;;;;;;5009991;28;20557;-77
2022/08/05 11:42:01;;;;;;;3.43;2.30;;;31.90;71.90;;;;;;4992001;28;20436;-78
2022/08/05 11:44:35;;;;;;;2.40;2.20;;;32.10;72.00;;;;;;5009883;28;20533;-78
2022/08/05 11:47:01;;;;;;;4.40;2.50;;;32.20;72.40;;;;;;5009864;28;20193;-78
2022/08/05 11:49:26;;;;;;;2.70;2.37;;;32.10;71.40;;;;;;5009650;28;20790;-78
2022/08/05 11:51:52;;;;;;;2.60;2.37;;;32.10;71.70;;;;;;5009510;28;20185;-78
2022/08/05 11:54:26;;;;;;;2.63;2.30;;;32.00;72.10;;;;;;5010201;28;20192;-77
2022/08/05 11:56:54;;;;;;;4.50;2.00;;;31.90;69.90;;;;;;5010382;28;20420;-77
2022/08/05 11:59:22;;;;;;;2.03;1.93;;;32.10;70.60;;;;;;5009962;28;20502;-78
2022/08/05 12:01:53;;;;;;;2.20;1.87;;;32.20;70.90;;;;;;4992704;28;20459;-77
2022/08/05 12:04:18;;;;;;;6.67;2.23;;;32.40;68.30;;;;;;4992613;28;20475;-78
2022/08/05 12:06:44;;;;;;;2.20;2.03;;;32.40;67.00;;;;;;4992502;28;20493;-78
2022/08/05 12:09:10;;;;;;;6.73;2.10;;;32.40;66.60;;;;;;5010916;28;20283;-79
2022/08/05 12:11:36;;;;;;;3.90;2.23;;;32.40;69.30;;;;;;4992518;28;21083;-78
2022/08/05 12:14:07;;;;;;;3.90;2.20;;;32.40;67.70;;;;;;5013645;28;20428;-76
2022/08/05 12:16:37;;;;;;;4.50;2.10;;;32.50;67.90;;;;;;5012948;28;20193;-74
2022/08/05 12:19:04;;;;;;;2.73;2.50;;;32.40;67.80;;;;;;5012966;28;20474;-74
2022/08/05 12:21:40;;;;;;;6.60;2.70;;;32.50;68.10;;;;;;5012703;28;20800;-75
2022/08/05 12:24:09;;;;;;;2.47;2.00;;;32.60;69.50;;;;;;4994684;28;20474;-74
2022/08/05 12:26:41;;;;;;;6.70;2.33;;;32.60;67.20;;;;;;4994874;28;20460;-74
2022/08/05 12:29:19;;;;;;;6.47;2.43;;;32.70;66.60;;;;;;5011759;28;20450;-74
2022/08/05 12:31:58;;;;;;;2.33;2.23;;;32.80;66.60;;;;;;5011727;28;20427;-75
2022/08/05 12:34:27;;;;;;;4.03;2.37;;;32.70;66.30;;;;;;5012227;28;21430;-75
2022/08/05 12:37:12;;;;;;;3.00;2.13;;;32.80;66.90;;;;;;4994328;28;21019;-75
2022/08/05 12:39:38;;;;;;;3.47;2.30;;;32.90;66.50;;;;;;4994322;28;20812;-75
2022/08/05 12:42:10;;;;;;;4.27;2.70;;;32.80;65.90;;;;;;4977713;28;20466;-74
2022/08/05 12:44:36;;;;;;;2.20;2.00;;;32.80;65.70;;;;;;5011787;28;20507;-74
2022/08/05 12:47:02;;;;;;;2.70;1.90;;;32.80;65.10;;;;;;5011587;28;20515;-74
2022/08/05 12:49:50;;;;;;;2.60;2.40;;;32.70;64.80;;;;;;5011272;28;20562;-75
2022/08/05 12:52:17;;;;;;;3.83;2.77;;;32.70;65.10;;;;;;5011564;28;20230;-74
2022/08/05 12:54:47;;;;;;;3.17;2.17;;;32.60;65.00;;;;;;5011635;28;20892;-75
2022/08/05 12:57:13;;;;;;;3.67;1.93;;;32.60;64.70;;;;;;4993451;28;20949;-74
2022/08/05 12:59:53;;;;;;;6.20;2.60;;;32.80;65.70;;;;;;5011385;28;20439;-75